createdAt,value
2022-10-11T00:00:25.381Z,14.59
2022-10-11T00:04:26.927Z,14.48
2022-10-11T00:08:28.476Z,14.43
2022-10-11T00:12:30.050Z,14.38
2022-10-11T00:16:31.747Z,14.30
2022-10-11T00:20:33.352Z,14.20
2022-10-11T00:24:35.573Z,14.14
2022-10-11T00:28:38.248Z,14.08
2022-10-11T00:32:40.053Z,14.06
2022-10-11T00:36:41.598Z,14.05
2022-10-11T00:40:43.662Z,14.00
2022-10-11T00:44:49.828Z,13.97
2022-10-11T00:48:57.630Z,13.96
2022-10-11T00:53:05.496Z,13.88
2022-10-11T00:57:10.214Z,13.83
2022-10-11T01:01:12.105Z,13.78
2022-10-11T01:05:32.207Z,13.78
2022-10-11T01:09:34.101Z,13.80
2022-10-11T01:13:40.645Z,13.84
2022-10-11T01:18:06.636Z,13.86
2022-10-11T01:22:35.584Z,13.86
2022-10-11T01:27:04.748Z,13.86
2022-10-11T01:31:19.467Z,13.81
2022-10-11T01:35:28.637Z,13.77
2022-10-11T01:39:39.095Z,13.71
2022-10-11T01:43:42.084Z,13.65
2022-10-11T01:47:45.760Z,13.59
2022-10-11T01:51:52.312Z,13.54
2022-10-11T01:56:24.797Z,13.42
2022-10-11T02:00:39.458Z,13.35
2022-10-11T02:04:53.134Z,13.26
2022-10-11T02:09:16.592Z,13.16
2022-10-11T02:13:33.882Z,13.06
2022-10-11T02:17:42.846Z,12.96
2022-10-11T02:21:48.719Z,12.78
2022-10-11T02:25:52.500Z,12.68
2022-10-11T02:29:56.116Z,12.49
2022-10-11T02:34:05.705Z,12.38
2022-10-11T02:38:22.113Z,12.24
2022-10-11T02:42:46.927Z,12.09
2022-10-11T02:46:50.212Z,11.95
2022-10-11T02:50:53.731Z,11.90
2022-10-11T02:54:55.365Z,11.83
2022-10-11T02:58:56.979Z,11.79
2022-10-11T03:02:58.631Z,11.71
2022-10-11T03:07:00.264Z,11.58
2022-10-11T03:11:01.825Z,11.47
2022-10-11T03:15:04.181Z,11.35
2022-10-11T03:19:05.854Z,11.21
2022-10-11T03:23:07.381Z,11.09
2022-10-11T03:27:09.047Z,10.94
2022-10-11T03:31:10.785Z,10.84
2022-10-11T03:35:12.580Z,10.74
2022-10-11T03:39:14.304Z,10.60
2022-10-11T03:43:16.703Z,10.47
2022-10-11T03:48:14.136Z,10.39
2022-10-11T03:51:52.946Z,10.34
2022-10-11T03:56:08.143Z,10.25
2022-10-11T04:00:10.483Z,10.13
2022-10-11T04:04:12.116Z,10.04
2022-10-11T04:08:13.832Z,9.96
2022-10-11T04:12:15.566Z,9.85
2022-10-11T04:16:21.023Z,9.80
2022-10-11T04:20:22.637Z,9.75
2022-10-11T04:24:24.213Z,9.64
2022-10-11T04:28:25.949Z,9.62
2022-10-11T04:32:27.895Z,9.54
2022-10-11T04:36:30.220Z,9.49
2022-10-11T04:40:32.750Z,9.40
2022-10-11T04:44:34.322Z,9.38
2022-10-11T04:48:36.285Z,9.33
2022-10-11T04:52:50.409Z,9.27
2022-10-11T04:56:51.996Z,9.22
2022-10-11T05:00:54.076Z,9.21
2022-10-11T05:04:57.756Z,9.20
2022-10-11T05:09:00.388Z,9.13
2022-10-11T05:13:01.956Z,9.06
2022-10-11T05:17:03.627Z,8.99
2022-10-11T05:21:08.129Z,8.92
2022-10-11T05:25:09.802Z,8.84
2022-10-11T05:29:11.549Z,8.81
2022-10-11T05:33:13.169Z,8.76
2022-10-11T05:37:14.856Z,8.71
2022-10-11T05:41:16.804Z,8.64
2022-10-11T05:45:18.736Z,8.58
2022-10-11T05:49:20.349Z,8.59
2022-10-11T05:53:22.255Z,8.58
2022-10-11T05:57:23.868Z,8.56
2022-10-11T06:01:26.958Z,8.58
2022-10-11T06:05:28.674Z,8.57
2022-10-11T06:09:32.886Z,8.55
2022-10-11T06:13:35.859Z,8.58
2022-10-11T06:17:37.768Z,8.56
2022-10-11T06:21:39.538Z,8.60
2022-10-11T06:25:41.101Z,8.59
2022-10-11T06:29:42.796Z,8.58
2022-10-11T06:33:44.359Z,8.59
2022-10-11T06:37:45.930Z,8.62
2022-10-11T06:41:47.538Z,8.64
2022-10-11T06:45:49.279Z,8.66
2022-10-11T06:49:50.865Z,8.71
2022-10-11T06:53:55.653Z,8.74
2022-10-11T06:57:57.228Z,8.77
2022-10-11T07:01:58.847Z,8.80
2022-10-11T07:06:05.778Z,8.83
2022-10-11T07:10:08.096Z,8.82
2022-10-11T07:14:09.933Z,8.84
2022-10-11T07:18:13.389Z,8.93
2022-10-11T07:22:16.164Z,8.97
2022-10-11T07:26:18.879Z,9.06
2022-10-11T07:30:21.828Z,9.15
2022-10-11T07:34:23.338Z,9.27
2022-10-11T07:38:25.103Z,9.43
2022-10-11T07:42:26.919Z,9.59
2022-10-11T07:46:28.632Z,9.79
2022-10-11T07:50:30.247Z,9.92
2022-10-11T07:54:32.933Z,10.08
2022-10-11T07:58:34.480Z,10.34
2022-10-11T08:02:36.139Z,10.54
2022-10-11T08:06:38.025Z,10.81
2022-10-11T08:10:40.422Z,11.07
2022-10-11T08:14:42.180Z,11.10
2022-10-11T08:18:43.947Z,11.32
2022-10-11T08:22:45.544Z,11.48
2022-10-11T08:26:47.982Z,11.58
2022-10-11T08:31:17.801Z,11.67
2022-10-11T08:35:19.438Z,11.94
2022-10-11T08:39:20.971Z,12.18
2022-10-11T08:43:47.168Z,12.41
2022-10-11T08:47:48.827Z,12.66
2022-10-11T08:52:04.291Z,12.91
2022-10-11T08:56:07.124Z,13.05
2022-10-11T09:00:22.357Z,13.27
2022-10-11T09:04:27.360Z,13.36
2022-10-11T09:09:12.981Z,13.22
2022-10-11T09:13:20.389Z,12.99
2022-10-11T09:17:30.995Z,12.78
2022-10-11T09:21:38.515Z,12.76
2022-10-11T09:26:27.139Z,12.60
2022-10-11T09:30:28.788Z,12.59
2022-10-11T09:34:36.778Z,12.61
2022-10-11T09:39:18.236Z,12.80
2022-10-11T09:43:20.290Z,13.13
2022-10-11T09:47:28.073Z,13.39
2022-10-11T09:51:30.741Z,13.64
2022-10-11T09:55:52.379Z,13.91
2022-10-11T10:00:23.336Z,14.12
2022-10-11T10:05:08.638Z,14.37
2022-10-11T10:09:27.945Z,14.52
2022-10-11T10:13:56.073Z,14.56
2022-10-11T10:17:59.129Z,14.66
2022-10-11T10:22:04.723Z,14.66
2022-10-11T10:26:30.220Z,14.84
2022-10-11T10:30:45.955Z,15.06
2022-10-11T10:35:09.339Z,15.21
2022-10-11T10:39:53.912Z,15.29
2022-10-11T10:44:02.155Z,15.67
2022-10-11T10:49:11.656Z,15.93
2022-10-11T10:53:30.277Z,15.94
2022-10-11T10:58:12.879Z,16.18
2022-10-11T11:06:51.186Z,16.34
2022-10-11T11:11:05.213Z,16.45
2022-10-11T11:15:32.507Z,16.56
2022-10-11T11:20:13.838Z,16.63
2022-10-11T11:24:24.259Z,16.71
2022-10-11T11:28:50.273Z,16.72
2022-10-11T11:33:10.783Z,17.15
2022-10-11T11:37:40.619Z,17.74
2022-10-11T11:41:52.243Z,18.08
2022-10-11T11:45:59.353Z,18.71
2022-10-11T11:50:15.206Z,19.61
2022-10-11T11:54:38.177Z,20.29
2022-10-11T11:58:48.795Z,20.16
2022-10-11T12:03:13.512Z,20.09
2022-10-11T12:07:18.376Z,20.61
2022-10-11T12:11:25.458Z,20.63
2022-10-11T12:15:27.460Z,20.82
2022-10-11T12:19:29.183Z,20.63
2022-10-11T12:23:30.803Z,20.82
2022-10-11T12:27:37.287Z,21.07
2022-10-11T12:31:43.739Z,21.29
2022-10-11T12:35:53.857Z,21.43
2022-10-11T12:39:58.455Z,21.54
2022-10-11T12:44:22.878Z,21.69
2022-10-11T12:48:46.144Z,22.10
2022-10-11T12:53:03.398Z,22.01
2022-10-11T12:57:46.166Z,21.75
2022-10-11T13:01:52.600Z,21.55
2022-10-11T13:06:01.472Z,20.76
2022-10-11T13:10:05.524Z,20.33
2022-10-11T13:14:17.596Z,19.77
2022-10-11T13:18:24.612Z,19.32
2022-10-11T13:22:26.755Z,19.09
2022-10-11T13:26:30.613Z,18.96
2022-10-11T13:30:34.488Z,18.63
2022-10-11T13:34:39.409Z,18.28
2022-10-11T13:38:41.007Z,17.97
2022-10-11T13:42:43.552Z,17.60
2022-10-11T13:46:45.500Z,17.36
2022-10-11T13:51:10.944Z,17.14
2022-10-11T13:55:35.662Z,17.03
2022-10-11T13:59:42.391Z,16.75
2022-10-11T14:03:47.862Z,16.68
2022-10-11T14:07:49.591Z,16.65
2022-10-11T14:11:51.309Z,16.53
2022-10-11T14:16:06.044Z,16.44
2022-10-11T14:20:19.921Z,16.35
2022-10-11T14:24:21.988Z,16.38
2022-10-11T14:28:23.702Z,16.51
2022-10-11T14:32:35.231Z,16.59
2022-10-11T14:36:36.897Z,16.45
2022-10-11T14:40:38.797Z,16.37
2022-10-11T14:44:40.892Z,16.37
2022-10-11T14:48:54.930Z,16.34
2022-10-11T14:52:58.249Z,16.40
2022-10-11T14:57:02.868Z,16.48
2022-10-11T15:01:04.805Z,16.47
2022-10-11T15:05:06.978Z,16.43
2022-10-11T15:09:08.977Z,16.32
2022-10-11T15:13:10.604Z,16.27
2022-10-11T15:17:12.939Z,16.14
2022-10-11T15:21:14.724Z,16.02
2022-10-11T15:25:16.849Z,15.87
2022-10-11T15:29:32.909Z,15.78
2022-10-11T15:33:34.540Z,15.63
2022-10-11T15:37:37.843Z,15.45
2022-10-11T15:41:39.476Z,15.24
2022-10-11T15:45:41.236Z,15.01
2022-10-11T15:49:42.880Z,14.81
2022-10-11T15:53:44.846Z,14.66
2022-10-11T15:57:46.505Z,14.47
2022-10-11T16:01:48.170Z,14.33
2022-10-11T16:05:52.339Z,14.24
2022-10-11T16:09:54.000Z,14.13
2022-10-11T16:13:55.617Z,14.03
2022-10-11T16:17:57.375Z,13.95
2022-10-11T16:21:59.010Z,13.86
2022-10-11T16:26:07.387Z,13.78
2022-10-11T16:30:11.958Z,13.62
2022-10-11T16:34:14.988Z,13.44
2022-10-11T16:38:17.048Z,13.25
2022-10-11T16:42:18.623Z,13.06
2022-10-11T16:46:21.465Z,12.88
2022-10-11T16:50:24.535Z,12.71
2022-10-11T16:54:30.563Z,12.56
2022-10-11T16:58:35.165Z,12.40
2022-10-11T17:02:36.896Z,12.25
2022-10-11T17:06:40.191Z,12.13
2022-10-11T17:10:44.464Z,11.98
2022-10-11T17:14:46.514Z,11.83
2022-10-11T17:18:49.080Z,11.75
2022-10-11T17:22:51.540Z,11.67
2022-10-11T17:26:54.403Z,11.58
2022-10-11T17:30:57.650Z,11.47
2022-10-11T17:35:01.995Z,11.38
2022-10-11T17:39:08.843Z,11.32
2022-10-11T17:43:12.859Z,11.28
2022-10-11T17:47:15.086Z,11.24
2022-10-11T17:51:18.667Z,11.20
2022-10-11T17:55:20.295Z,11.15
2022-10-11T17:59:22.299Z,11.14
2022-10-11T18:03:25.843Z,11.15
2022-10-11T18:07:27.633Z,11.15
2022-10-11T18:11:33.825Z,11.13
2022-10-11T18:15:35.583Z,11.06
2022-10-11T18:19:37.224Z,11.01
2022-10-11T18:23:40.827Z,10.94
2022-10-11T18:27:42.455Z,10.91
2022-10-11T18:31:44.264Z,10.87
2022-10-11T18:35:45.811Z,10.82
2022-10-11T18:39:47.443Z,10.77
2022-10-11T18:43:56.500Z,10.74
2022-10-11T18:47:58.229Z,10.68
2022-10-11T18:51:59.821Z,10.68
2022-10-11T18:56:03.649Z,10.68
2022-10-11T19:00:16.809Z,10.66
2022-10-11T19:04:25.810Z,10.62
2022-10-11T19:08:27.936Z,10.60
2022-10-11T19:12:29.623Z,10.57
2022-10-11T19:16:31.402Z,10.52
2022-10-11T19:20:35.753Z,10.48
2022-10-11T19:24:37.361Z,10.45
2022-10-11T19:28:39.062Z,10.39
2022-10-11T19:32:40.688Z,10.33
2022-10-11T19:36:43.148Z,10.27
2022-10-11T19:40:44.778Z,10.20
2022-10-11T19:44:46.465Z,10.16
2022-10-11T19:48:49.687Z,10.11
2022-10-11T19:52:51.454Z,10.11
2022-10-11T19:56:53.119Z,10.09
2022-10-11T20:01:06.531Z,10.04
2022-10-11T20:05:08.373Z,10.04
2022-10-11T20:09:28.589Z,10.00
2022-10-11T20:13:34.866Z,9.92
2022-10-11T20:17:48.803Z,9.87
2022-10-11T20:21:50.530Z,9.82
2022-10-11T20:25:58.945Z,9.78
2022-10-11T20:30:01.790Z,9.75
2022-10-11T20:34:07.590Z,9.70
2022-10-11T20:38:09.127Z,9.62
2022-10-11T20:42:10.781Z,9.54
2022-10-11T20:46:15.583Z,9.47
2022-10-11T20:50:22.128Z,9.39
2022-10-11T20:54:24.716Z,9.36
2022-10-11T20:58:26.660Z,9.28
2022-10-11T21:02:28.239Z,9.21
2022-10-11T21:06:31.372Z,9.15
2022-10-11T21:10:33.071Z,9.03
2022-10-11T21:14:34.694Z,8.94
2022-10-11T21:18:36.357Z,8.87
2022-10-11T21:22:38.075Z,8.79
2022-10-11T21:26:39.637Z,8.74
2022-10-11T21:30:41.200Z,8.69
2022-10-11T21:34:43.766Z,8.64
2022-10-11T21:38:46.105Z,8.63
2022-10-11T21:42:47.755Z,8.61
2022-10-11T21:51:16.041Z,8.59
2022-10-11T21:55:17.604Z,8.56
2022-10-11T21:59:19.234Z,8.53
2022-10-11T22:03:20.776Z,8.50
2022-10-11T22:07:22.308Z,8.50
2022-10-11T22:11:24.228Z,8.49
2022-10-11T22:15:25.781Z,8.45
2022-10-11T22:19:27.544Z,8.35
2022-10-11T22:23:29.117Z,8.30
2022-10-11T22:27:30.688Z,8.28
2022-10-11T22:31:32.382Z,8.24
2022-10-11T22:35:37.722Z,8.20
2022-10-11T22:39:39.402Z,8.18
2022-10-11T22:43:41.087Z,8.15
2022-10-11T22:47:42.626Z,8.12
2022-10-11T22:51:44.552Z,8.14
2022-10-11T22:55:46.679Z,8.18
2022-10-11T22:59:48.338Z,8.23
2022-10-11T23:03:52.966Z,8.29
2022-10-11T23:07:54.839Z,8.41
2022-10-11T23:11:56.470Z,8.53
2022-10-11T23:15:58.105Z,8.55
2022-10-11T23:19:59.795Z,8.51
2022-10-11T23:24:01.505Z,8.55
2022-10-11T23:28:03.152Z,8.60
2022-10-11T23:32:04.881Z,8.63
2022-10-11T23:36:13.045Z,8.67
2022-10-11T23:40:16.726Z,8.74
2022-10-11T23:44:19.740Z,8.85
2022-10-11T23:48:22.749Z,8.89
2022-10-11T23:52:24.233Z,8.96
2022-10-11T23:56:25.851Z,9.07
